Evans, CO

7:34 AM MDT on September 16, 2014 (GMT -0600)
Fort Collins-Loveland Municipal | Change Station
CLOSE
Current Station
Airport
Location: Fort Collins,
Elevation: 5016 ft
Nearby Weather Stations

Elev 5016 ft 40.45 °N, 105.01 °W | Updated 19 minutes ago

Clear
Clear
48 °F
Feels Like 48 °F
N
0
Wind Variable Wind from North

Today
High -- | Low -- °F
--% Chance of Precip.
Yesterday
High -- | Low -- °F
Precip. -- in
6:40 AM 7:05 PM
Last Quarter, 45% visible
Pressure 30.18 in
Visibility 9.0 miles
Clouds Clear
Dew Point 45 °F
Humidity 87%
Rainfall 0.00 in
Snow Depth 1 in , 1 in , 1 in
UV 0 out of 12
Pollen 8.10 out of 12
Ozone Good
PM2.5 Good
Flu Activity Not available.
METAR KFNL 161315Z AUTO 00000KT 9SM CLR 09/07 A3018 RMK AO1

More Conditions Fewer Conditions

Pressure 30.18 in
Visibility 9.0 miles
Clouds Clear
Dew Point 45 °F
Humidity 87%
Rainfall 0.00 in
Snow Depth 1 in , 1 in , 1 in
UV 0 out of 12
Pollen 8.10 out of 12
Ozone Good
PM2.5 Good
Flu Activity Not available.
METAR KFNL 161315Z AUTO 00000KT 9SM CLR 09/07 A3018 RMK AO1

More Conditions Fewer Conditions

10-Day Weather Forecast

Almanac

Astronomy

Sep. 16, 2014 Rise Set
Actual Time 6:40 AM MDT 7:05 PM MDT
Civil Twilight 6:13 AM MDT 7:33 PM MDT
Nautical Twilight 5:41 AM MDT 8:05 PM MDT
Astronomical Twilight 5:08 AM MDT 8:38 PM MDT
Moon No Moon Rise 2:32 PM MDT
Length of Visible Light 13h 19m
Length of Day
12h 25m
Tomorrow will be 2m 39s shorter.
Last Quarter, 45% of the Moon is Illuminated
Today
Last Quarter
Sep 24
New
Oct 1
First Quarter
Oct 8
Full
Oct 15
Last Quarter

Today's Extremes

State Highs State Lows

Community

WunderPhotos

Upload Photos

1,753,759 photos uploaded!

Nearby

Air Quality

  Air Quality AQ Index Pollutant
Yesterday Good
OZONE
Yesterday Good
PM2.5
Current Good
PM2.5
Current Good
OZONE
Tuesday Good
PM2.5
Tuesday Good
OZONE

Snow Depth

Station Depth Elevation
Willow Creek Pass 1 in 9540 ft
Ivanhoe 1 in 10400 ft
Park Reservoir 1 in 9960 ft
Ute Creek 0 in 10650 ft
Summit Ranch 1 in 9400 ft

Earthquake Activity

City Distance Mag. Time & Date
No recent earthquake activity has been reported nearby.
Minimum magnitude displayed is 2.5.

Coastal Water Temperatures

Place Temperature
No Stations Reporting

Nearby Weather Stations